sensor_id;sensor_type;location;lat;lon;timestamp;pressure;altitude;pressure_sealevel;temperature;humidity
74218;BME280;62579;47.288;18.646;2023-10-13T00:02:05;100078.41;;;15.00;100.00
74218;BME280;62579;47.288;18.646;2023-10-13T00:04:32;100066.84;;;15.07;100.00
74218;BME280;62579;47.288;18.646;2023-10-13T00:07:00;100072.31;;;15.07;100.00
74218;BME280;62579;47.288;18.646;2023-10-13T00:09:27;100070.25;;;15.13;100.00
74218;BME280;62579;47.288;18.646;2023-10-13T00:12:03;100074.78;;;15.11;100.00
74218;BME280;62579;47.288;18.646;2023-10-13T00:14:29;100077.19;;;15.14;100.00
74218;BME280;62579;47.288;18.646;2023-10-13T00:17:02;100081.16;;;15.00;100.00
74218;BME280;62579;47.288;18.646;2023-10-13T00:19:34;100082.28;;;14.91;100.00
74218;BME280;62579;47.288;18.646;2023-10-13T00:22:07;100080.84;;;14.85;100.00
74218;BME280;62579;47.288;18.646;2023-10-13T00:24:38;100079.41;;;14.84;100.00
74218;BME280;62579;47.288;18.646;2023-10-13T00:27:24;100080.84;;;14.85;100.00
74218;BME280;62579;47.288;18.646;2023-10-13T00:30:04;100088.91;;;14.96;100.00
74218;BME280;62579;47.288;18.646;2023-10-13T00:32:52;100086.72;;;14.94;100.00
74218;BME280;62579;47.288;18.646;2023-10-13T00:35:31;100077.59;;;15.05;100.00
74218;BME280;62579;47.288;18.646;2023-10-13T00:38:07;100081.06;;;15.06;100.00
74218;BME280;62579;47.288;18.646;2023-10-13T00:40:40;100083.56;;;15.03;100.00
74218;BME280;62579;47.288;18.646;2023-10-13T00:43:05;100080.84;;;15.03;100.00
74218;BME280;62579;47.288;18.646;2023-10-13T00:45:44;100082.13;;;15.02;100.00
74218;BME280;62579;47.288;18.646;2023-10-13T00:48:13;100081.75;;;14.93;100.00
74218;BME280;62579;47.288;18.646;2023-10-13T00:50:41;100080.41;;;14.99;100.00
74218;BME280;62579;47.288;18.646;2023-10-13T00:53:08;100079.16;;;15.00;100.00
74218;BME280;62579;47.288;18.646;2023-10-13T00:55:34;100077.87;;;15.01;100.00
74218;BME280;62579;47.288;18.646;2023-10-13T00:58:00;100077.47;;;14.97;100.00
74218;BME280;62579;47.288;18.646;2023-10-13T01:00:29;100078.41;;;15.00;100.00
74218;BME280;62579;47.288;18.646;2023-10-13T01:02:55;100073.44;;;14.98;100.00
74218;BME280;62579;47.288;18.646;2023-10-13T01:05:31;100073.53;;;14.93;100.00
74218;BME280;62579;47.288;18.646;2023-10-13T01:08:00;100069.66;;;15.01;100.00
74218;BME280;62579;47.288;18.646;2023-10-13T01:10:26;100077.47;;;14.97;100.00
74218;BME280;62579;47.288;18.646;2023-10-13T01:12:53;100079.75;;;14.93;100.00
74218;BME280;62579;47.288;18.646;2023-10-13T01:15:19;100060.56;;;14.93;100.00
74218;BME280;62579;47.288;18.646;2023-10-13T01:17:47;100065.84;;;14.91;100.00
74218;BME280;62579;47.288;18.646;2023-10-13T01:20:16;100061.84;;;14.92;100.00
74218;BME280;62579;47.288;18.646;2023-10-13T01:22:50;100063.84;;;14.92;100.00
74218;BME280;62579;47.288;18.646;2023-10-13T01:25:25;100055.78;;;14.81;100.00
74218;BME280;62579;47.288;18.646;2023-10-13T01:27:54;100062.22;;;14.83;100.00
74218;BME280;62579;47.288;18.646;2023-10-13T01:30:20;100075.38;;;14.85;100.00
74218;BME280;62579;47.288;18.646;2023-10-13T01:32:50;100066.94;;;14.83;100.00
74218;BME280;62579;47.288;18.646;2023-10-13T01:35:17;100062.22;;;14.83;100.00
74218;BME280;62579;47.288;18.646;2023-10-13T01:37:51;100072.88;;;14.87;100.00
74218;BME280;62579;47.288;18.646;2023-10-13T01:40:16;100064.41;;;14.85;100.00
74218;BME280;62579;47.288;18.646;2023-10-13T01:42:44;100054.28;;;14.80;100.00
74218;BME280;62579;47.288;18.646;2023-10-13T01:45:10;100047.34;;;14.79;100.00
74218;BME280;62579;47.288;18.646;2023-10-13T01:47:39;100043.63;;;14.76;100.00
74218;BME280;62579;47.288;18.646;2023-10-13T01:50:06;100046.87;;;14.75;100.00
74218;BME280;62579;47.288;18.646;2023-10-13T01:52:39;100048.38;;;14.76;100.00
74218;BME280;62579;47.288;18.646;2023-10-13T01:55:07;100058.22;;;14.84;100.00
74218;BME280;62579;47.288;18.646;2023-10-13T01:57:32;100065.25;;;14.80;100.00
74218;BME280;62579;47.288;18.646;2023-10-13T01:59:57;100073.31;;;14.91;100.00
74218;BME280;62579;47.288;18.646;2023-10-13T02:02:29;100078.88;;;14.85;100.00
74218;BME280;62579;47.288;18.646;2023-10-13T02:04:55;100070.50;;;14.78;100.00
74218;BME280;62579;47.288;18.646;2023-10-13T02:07:22;100068.28;;;14.76;100.00
74218;BME280;62579;47.288;18.646;2023-10-13T02:09:51;100074.56;;;14.71;100.00
74218;BME280;62579;47.288;18.646;2023-10-13T02:12:19;100072.66;;;14.66;100.00
74218;BME280;62579;47.288;18.646;2023-10-13T02:14:50;100075.38;;;14.66;100.00
74218;BME280;62579;47.288;18.646;2023-10-13T02:17:15;100081.91;;;14.63;100.00
74218;BME280;62579;47.288;18.646;2023-10-13T02:19:42;100079.91;;;14.64;100.00
74218;BME280;62579;47.288;18.646;2023-10-13T02:22:11;100074.75;;;14.60;100.00
74218;BME280;62579;47.288;18.646;2023-10-13T02:24:37;100077.78;;;14.57;100.00
74218;BME280;62579;47.288;18.646;2023-10-13T02:27:09;100074.28;;;14.56;100.00
74218;BME280;62579;47.288;18.646;2023-10-13T02:29:42;100076.34;;;14.50;100.00
74218;BME280;62579;47.288;18.646;2023-10-13T02:32:11;100087.16;;;14.42;100.00
74218;BME280;62579;47.288;18.646;2023-10-13T02:34:46;100080.72;;;14.40;100.00
74218;BME280;62579;47.288;18.646;2023-10-13T02:37:12;100078.59;;;14.52;100.00
74218;BME280;62579;47.288;18.646;2023-10-13T02:39:39;100076.06;;;14.54;100.00
74218;BME280;62579;47.288;18.646;2023-10-13T02:42:07;100084.00;;;14.57;100.00
74218;BME280;62579;47.288;18.646;2023-10-13T02:44:33;100076.28;;;14.56;100.00
74218;BME280;62579;47.288;18.646;2023-10-13T02:47:02;100082.69;;;14.39;100.00
74218;BME280;62579;47.288;18.646;2023-10-13T02:49:31;100079.34;;;14.28;100.00
74218;BME280;62579;47.288;18.646;2023-10-13T02:51:59;100071.06;;;14.33;100.00
74218;BME280;62579;47.288;18.646;2023-10-13T02:54:30;100072.44;;;14.46;100.00
74218;BME280;62579;47.288;18.646;2023-10-13T02:56:57;100071.75;;;14.58;100.00
74218;BME280;62579;47.288;18.646;2023-10-13T02:59:30;100079.47;;;14.60;100.00
74218;BME280;62579;47.288;18.646;2023-10-13T03:02:31;100090.50;;;14.54;100.00
74218;BME280;62579;47.288;18.646;2023-10-13T03:04:57;100093.59;;;14.45;100.00
74218;BME280;62579;47.288;18.646;2023-10-13T03:07:36;100097.69;;;14.57;100.00
74218;BME280;62579;47.288;18.646;2023-10-13T03:10:02;100103.09;;;14.63;100.00
74218;BME280;62579;47.288;18.646;2023-10-13T03:12:36;100105.16;;;14.75;100.00
74218;BME280;62579;47.288;18.646;2023-10-13T03:15:02;100096.41;;;14.77;100.00
74218;BME280;62579;47.288;18.646;2023-10-13T03:17:48;100089.09;;;14.66;100.00
74218;BME280;62579;47.288;18.646;2023-10-13T03:20:17;100101.06;;;14.63;100.00
74218;BME280;62579;47.288;18.646;2023-10-13T03:22:52;100102.56;;;14.83;100.00
74218;BME280;62579;47.288;18.646;2023-10-13T03:25:18;100086.41;;;14.79;100.00
74218;BME280;62579;47.288;18.646;2023-10-13T03:27:55;100085.44;;;14.77;100.00
74218;BME280;62579;47.288;18.646;2023-10-13T03:30:21;100088.44;;;14.79;100.00
74218;BME280;62579;47.288;18.646;2023-10-13T03:32:48;100090.34;;;14.84;100.00
74218;BME280;62579;47.288;18.646;2023-10-13T03:35:19;100087.63;;;14.84;100.00
74218;BME280;62579;47.288;18.646;2023-10-13T03:37:53;100088.03;;;14.88;100.00
74218;BME280;62579;47.288;18.646;2023-10-13T03:40:20;100081.97;;;14.95;100.00
74218;BME280;62579;47.288;18.646;2023-10-13T03:45:41;100074.06;;;14.91;100.00
74218;BME280;62579;47.288;18.646;2023-10-13T03:48:15;100071.81;;;14.90;100.00
74218;BME280;62579;47.288;18.646;2023-10-13T03:50:50;100077.22;;;14.95;100.00
74218;BME280;62579;47.288;18.646;2023-10-13T03:53:36;100070.94;;;15.00;100.00
74218;BME280;62579;47.288;18.646;2023-10-13T03:56:06;100066.91;;;15.01;100.00
74218;BME280;62579;47.288;18.646;2023-10-13T03:58:40;100073.56;;;15.06;100.00
74218;BME280;62579;47.288;18.646;2023-10-13T04:01:11;100069.59;;;14.88;100.00
74218;BME280;62579;47.288;18.646;2023-10-13T04:03:39;100068.66;;;14.86;100.00
74218;BME280;62579;47.288;18.646;2023-10-13T04:06:22;100072.47;;;14.96;100.00
74218;BME280;62579;47.288;18.646;2023-10-13T04:09:07;100066.41;;;15.03;100.00
74218;BME280;62579;47.288;18.646;2023-10-13T04:14:34;100066.03;;;14.93;100.00
74218;BME280;62579;47.288;18.646;2023-10-13T04:17:18;100058.56;;;14.94;100.00
74218;BME280;62579;47.288;18.646;2023-10-13T04:19:57;100057.22;;;15.00;100.00
74218;BME280;62579;47.288;18.646;2023-10-13T04:22:39;100052.19;;;15.04;100.00
74218;BME280;62579;47.288;18.646;2023-10-13T04:25:21;100052.22;;;15.18;100.00
74218;BME280;62579;47.288;18.646;2023-10-13T04:28:07;100047.03;;;15.14;100.00
74218;BME280;62579;47.288;18.646;2023-10-13T04:30:38;100045.56;;;15.13;100.00
74218;BME280;62579;47.288;18.646;2023-10-13T04:33:23;100047.28;;;15.16;100.00
74218;BME280;62579;47.288;18.646;2023-10-13T04:36:05;100055.66;;;15.05;100.00
74218;BME280;62579;47.288;18.646;2023-10-13T04:38:43;100054.66;;;15.21;100.00
74218;BME280;62579;47.288;18.646;2023-10-13T04:41:40;100057.31;;;15.27;100.00
74218;BME280;62579;47.288;18.646;2023-10-13T04:44:28;100050.34;;;15.26;100.00
74218;BME280;62579;47.288;18.646;2023-10-13T04:47:05;100055.81;;;15.26;100.00
74218;BME280;62579;47.288;18.646;2023-10-13T04:49:38;100060.25;;;15.29;100.00
74218;BME280;62579;47.288;18.646;2023-10-13T04:52:12;100061.44;;;15.33;100.00
74218;BME280;62579;47.288;18.646;2023-10-13T04:54:42;100058.56;;;15.57;100.00
74218;BME280;62579;47.288;18.646;2023-10-13T04:57:17;100061.25;;;15.44;100.00
74218;BME280;62579;47.288;18.646;2023-10-13T04:59:49;100064.16;;;15.33;100.00
74218;BME280;62579;47.288;18.646;2023-10-13T05:02:34;100071.03;;;15.27;100.00
74218;BME280;62579;47.288;18.646;2023-10-13T05:05:04;100064.06;;;15.26;100.00
74218;BME280;62579;47.288;18.646;2023-10-13T05:07:48;100066.12;;;15.20;100.00
74218;BME280;62579;47.288;18.646;2023-10-13T05:10:34;100072.69;;;14.98;100.00
74218;BME280;62579;47.288;18.646;2023-10-13T05:13:18;100076.25;;;14.93;100.00
74218;BME280;62579;47.288;18.646;2023-10-13T05:16:03;100085.53;;;15.09;100.00
74218;BME280;62579;47.288;18.646;2023-10-13T05:18:46;100089.50;;;15.08;100.00
74218;BME280;62579;47.288;18.646;2023-10-13T05:21:31;100097.59;;;15.00;100.00
74218;BME280;62579;47.288;18.646;2023-10-13T05:24:15;100095.16;;;14.96;100.00
74218;BME280;62579;47.288;18.646;2023-10-13T05:26:59;100093.31;;;14.86;100.00
74218;BME280;62579;47.288;18.646;2023-10-13T05:29:47;100099.00;;;14.88;100.00
74218;BME280;62579;47.288;18.646;2023-10-13T05:32:32;100110.41;;;14.92;100.00
74218;BME280;62579;47.288;18.646;2023-10-13T05:35:17;100103.75;;;14.87;100.00
74218;BME280;62579;47.288;18.646;2023-10-13T05:38:01;100104.28;;;14.86;100.00
74218;BME280;62579;47.288;18.646;2023-10-13T05:40:52;100119.91;;;14.72;100.00
74218;BME280;62579;47.288;18.646;2023-10-13T05:43:36;100135.97;;;14.63;100.00
74218;BME280;62579;47.288;18.646;2023-10-13T05:46:20;100135.00;;;14.79;100.00
74218;BME280;62579;47.288;18.646;2023-10-13T05:48:55;100133.22;;;14.81;100.00
74218;BME280;62579;47.288;18.646;2023-10-13T05:51:41;100134.31;;;15.10;100.00
74218;BME280;62579;47.288;18.646;2023-10-13T05:54:06;100146.41;;;15.01;100.00
74218;BME280;62579;47.288;18.646;2023-10-13T05:56:34;100138.41;;;15.03;100.00
74218;BME280;62579;47.288;18.646;2023-10-13T05:59:18;100149.75;;;14.94;100.00
74218;BME280;62579;47.288;18.646;2023-10-13T06:02:02;100138.19;;;15.01;100.00
74218;BME280;62579;47.288;18.646;2023-10-13T06:04:46;100150.09;;;15.04;100.00
74218;BME280;62579;47.288;18.646;2023-10-13T06:07:30;100148.84;;;15.05;100.00
74218;BME280;62579;47.288;18.646;2023-10-13T06:10:14;100149.53;;;15.11;100.00
74218;BME280;62579;47.288;18.646;2023-10-13T06:12:58;100167.50;;;15.07;100.00
74218;BME280;62579;47.288;18.646;2023-10-13T06:15:42;100160.09;;;15.20;100.00
74218;BME280;62579;47.288;18.646;2023-10-13T06:18:26;100165.91;;;15.17;100.00
74218;BME280;62579;47.288;18.646;2023-10-13T06:21:10;100167.06;;;15.21;100.00
74218;BME280;62579;47.288;18.646;2023-10-13T06:23:57;100182.84;;;15.34;100.00
74218;BME280;62579;47.288;18.646;2023-10-13T06:26:41;100177.94;;;15.45;100.00
74218;BME280;62579;47.288;18.646;2023-10-13T06:29:25;100182.31;;;15.54;100.00
74218;BME280;62579;47.288;18.646;2023-10-13T06:31:50;100186.44;;;15.60;100.00
74218;BME280;62579;47.288;18.646;2023-10-13T06:34:16;100187.31;;;15.69;100.00
74218;BME280;62579;47.288;18.646;2023-10-13T06:36:45;100191.97;;;15.74;100.00
74218;BME280;62579;47.288;18.646;2023-10-13T06:39:12;100194.44;;;15.77;100.00
74218;BME280;62579;47.288;18.646;2023-10-13T06:41:56;100192.75;;;15.87;100.00
74218;BME280;62579;47.288;18.646;2023-10-13T06:44:21;100193.31;;;15.99;100.00
74218;BME280;62579;47.288;18.646;2023-10-13T06:46:47;100194.41;;;16.22;100.00
74218;BME280;62579;47.288;18.646;2023-10-13T06:49:15;100202.44;;;16.20;100.00
74218;BME280;62579;47.288;18.646;2023-10-13T06:51:43;100204.66;;;16.21;100.00
74218;BME280;62579;47.288;18.646;2023-10-13T06:54:11;100201.28;;;16.29;100.00
74218;BME280;62579;47.288;18.646;2023-10-13T06:56:44;100205.53;;;16.30;100.00
74218;BME280;62579;47.288;18.646;2023-10-13T06:59:11;100200.03;;;16.30;100.00
74218;BME280;62579;47.288;18.646;2023-10-13T07:01:39;100215.44;;;16.33;100.00
74218;BME280;62579;47.288;18.646;2023-10-13T07:04:07;100217.13;;;16.36;100.00
74218;BME280;62579;47.288;18.646;2023-10-13T07:06:39;100205.09;;;16.39;100.00
74218;BME280;62579;47.288;18.646;2023-10-13T07:09:08;100208.88;;;16.36;100.00
74218;BME280;62579;47.288;18.646;2023-10-13T07:11:40;100204.25;;;16.44;100.00
74218;BME280;62579;47.288;18.646;2023-10-13T07:14:08;100196.66;;;16.50;100.00
74218;BME280;62579;47.288;18.646;2023-10-13T07:16:56;100198.56;;;16.55;100.00
74218;BME280;62579;47.288;18.646;2023-10-13T07:19:25;100202.72;;;16.61;100.00
74218;BME280;62579;47.288;18.646;2023-10-13T07:21:54;100201.84;;;16.66;100.00
74218;BME280;62579;47.288;18.646;2023-10-13T07:24:27;100205.25;;;16.72;100.00
74218;BME280;62579;47.288;18.646;2023-10-13T07:26:58;100195.50;;;16.71;100.00
74218;BME280;62579;47.288;18.646;2023-10-13T07:29:29;100193.41;;;16.64;100.00
74218;BME280;62579;47.288;18.646;2023-10-13T07:31:54;100203.00;;;16.71;100.00
74218;BME280;62579;47.288;18.646;2023-10-13T07:34:19;100198.88;;;16.77;100.00
74218;BME280;62579;47.288;18.646;2023-10-13T07:36:52;100196.87;;;16.78;100.00
74218;BME280;62579;47.288;18.646;2023-10-13T07:39:18;100203.94;;;16.87;100.00
74218;BME280;62579;47.288;18.646;2023-10-13T07:41:51;100198.56;;;16.94;100.00
74218;BME280;62579;47.288;18.646;2023-10-13T07:44:22;100192.72;;;16.98;100.00
74218;BME280;62579;47.288;18.646;2023-10-13T07:46:54;100200.09;;;17.03;100.00
74218;BME280;62579;47.288;18.646;2023-10-13T07:49:29;100200.22;;;17.10;100.00
74218;BME280;62579;47.288;18.646;2023-10-13T07:52:03;100200.22;;;17.10;100.00
74218;BME280;62579;47.288;18.646;2023-10-13T07:54:49;100202.28;;;17.17;100.00
74218;BME280;62579;47.288;18.646;2023-10-13T07:57:24;100203.13;;;17.25;100.00
74218;BME280;62579;47.288;18.646;2023-10-13T07:59:56;100194.56;;;17.29;100.00
74218;BME280;62579;47.288;18.646;2023-10-13T08:02:56;100195.88;;;17.35;100.00
74218;BME280;62579;47.288;18.646;2023-10-13T08:05:32;100195.63;;;17.47;100.00
74218;BME280;62579;47.288;18.646;2023-10-13T08:08:18;100195.31;;;17.50;100.00
74218;BME280;62579;47.288;18.646;2023-10-13T08:10:44;100193.19;;;17.56;100.00
74218;BME280;62579;47.288;18.646;2023-10-13T08:13:11;100189.37;;;17.59;100.00
74218;BME280;62579;47.288;18.646;2023-10-13T08:15:44;100188.16;;;17.68;100.00
74218;BME280;62579;47.288;18.646;2023-10-13T08:18:13;100187.69;;;17.77;100.00
74218;BME280;62579;47.288;18.646;2023-10-13T08:21:00;100191.06;;;17.83;100.00
74218;BME280;62579;47.288;18.646;2023-10-13T08:23:29;100194.19;;;17.87;100.00
74218;BME280;62579;47.288;18.646;2023-10-13T08:26:13;100195.19;;;17.97;100.00
74218;BME280;62579;47.288;18.646;2023-10-13T08:29:01;100197.06;;;18.02;100.00
74218;BME280;62579;47.288;18.646;2023-10-13T08:31:47;100196.75;;;18.06;100.00
74218;BME280;62579;47.288;18.646;2023-10-13T08:34:36;100198.28;;;18.14;100.00
74218;BME280;62579;47.288;18.646;2023-10-13T08:37:25;100205.31;;;18.23;100.00
74218;BME280;62579;47.288;18.646;2023-10-13T08:39:56;100213.63;;;18.30;100.00
74218;BME280;62579;47.288;18.646;2023-10-13T08:42:32;100214.94;;;18.37;100.00
74218;BME280;62579;47.288;18.646;2023-10-13T08:50:33;100211.62;;;18.59;100.00
74218;BME280;62579;47.288;18.646;2023-10-13T08:53:22;100222.31;;;18.63;100.00
74218;BME280;62579;47.288;18.646;2023-10-13T08:55:59;100218.19;;;18.77;100.00
74218;BME280;62579;47.288;18.646;2023-10-13T08:58:37;100218.59;;;18.88;100.00
74218;BME280;62579;47.288;18.646;2023-10-13T09:01:35;100215.50;;;18.99;99.60
74218;BME280;62579;47.288;18.646;2023-10-13T09:04:05;100223.28;;;19.08;99.34
74218;BME280;62579;47.288;18.646;2023-10-13T09:06:44;100214.13;;;19.21;98.47
74218;BME280;62579;47.288;18.646;2023-10-13T09:09:14;100212.69;;;19.35;97.89
74218;BME280;62579;47.288;18.646;2023-10-13T09:11:53;100203.72;;;19.50;96.71
74218;BME280;62579;47.288;18.646;2023-10-13T09:14:32;100198.59;;;19.61;96.14
74218;BME280;62579;47.288;18.646;2023-10-13T09:17:05;100195.31;;;19.86;95.08
74218;BME280;62579;47.288;18.646;2023-10-13T09:19:51;100200.66;;;19.91;94.81
74218;BME280;62579;47.288;18.646;2023-10-13T09:22:24;100203.03;;;20.02;94.61
74218;BME280;62579;47.288;18.646;2023-10-13T09:24:57;100192.19;;;20.19;93.29
74218;BME280;62579;47.288;18.646;2023-10-13T09:27:25;100192.31;;;20.44;92.90
74218;BME280;62579;47.288;18.646;2023-10-13T09:30:05;100191.75;;;20.53;92.41
74218;BME280;62579;47.288;18.646;2023-10-13T09:33:04;100195.81;;;20.60;92.65
74218;BME280;62579;47.288;18.646;2023-10-13T09:35:30;100188.78;;;20.66;91.04
74218;BME280;62579;47.288;18.646;2023-10-13T09:37:59;100194.81;;;20.80;91.35
74218;BME280;62579;47.288;18.646;2023-10-13T09:40:27;100196.78;;;20.94;89.33
74218;BME280;62579;47.288;18.646;2023-10-13T09:43:11;100196.56;;;21.08;87.96
74218;BME280;62579;47.288;18.646;2023-10-13T09:45:40;100200.59;;;21.14;87.31
74218;BME280;62579;47.288;18.646;2023-10-13T09:48:31;100202.16;;;21.32;88.16
74218;BME280;62579;47.288;18.646;2023-10-13T09:50:59;100193.41;;;21.43;87.32
74218;BME280;62579;47.288;18.646;2023-10-13T09:53:25;100191.84;;;21.58;86.92
74218;BME280;62579;47.288;18.646;2023-10-13T09:56:11;100192.66;;;21.75;86.97
74218;BME280;62579;47.288;18.646;2023-10-13T09:58:50;100192.41;;;21.88;86.30
74218;BME280;62579;47.288;18.646;2023-10-13T10:01:24;100185.31;;;21.95;83.93
74218;BME280;62579;47.288;18.646;2023-10-13T10:04:09;100183.31;;;22.12;85.36
74218;BME280;62579;47.288;18.646;2023-10-13T10:06:38;100179.50;;;22.25;84.69
74218;BME280;62579;47.288;18.646;2023-10-13T10:09:11;100177.53;;;22.35;82.26
74218;BME280;62579;47.288;18.646;2023-10-13T10:14:41;100172.56;;;22.51;81.06
74218;BME280;62579;47.288;18.646;2023-10-13T10:17:13;100167.44;;;22.47;81.00
74218;BME280;62579;47.288;18.646;2023-10-13T10:19:49;100164.25;;;22.51;80.15
74218;BME280;62579;47.288;18.646;2023-10-13T10:22:29;100161.69;;;22.62;81.10
74218;BME280;62579;47.288;18.646;2023-10-13T10:25:02;100168.75;;;22.63;80.52
74218;BME280;62579;47.288;18.646;2023-10-13T10:27:29;100160.50;;;22.73;78.55
74218;BME280;62579;47.288;18.646;2023-10-13T10:29:55;100158.22;;;22.79;79.60
74218;BME280;62579;47.288;18.646;2023-10-13T10:32:20;100155.03;;;22.83;79.52
74218;BME280;62579;47.288;18.646;2023-10-13T10:34:46;100144.47;;;22.81;79.51
74218;BME280;62579;47.288;18.646;2023-10-13T10:37:12;100142.53;;;22.91;78.14
74218;BME280;62579;47.288;18.646;2023-10-13T10:39:38;100141.94;;;22.93;78.56
74218;BME280;62579;47.288;18.646;2023-10-13T10:42:15;100144.94;;;23.04;78.47
74218;BME280;62579;47.288;18.646;2023-10-13T10:44:41;100133.59;;;23.19;76.53
74218;BME280;62579;47.288;18.646;2023-10-13T10:47:10;100138.91;;;23.25;77.13
74218;BME280;62579;47.288;18.646;2023-10-13T10:49:39;100136.66;;;23.41;75.98
74218;BME280;62579;47.288;18.646;2023-10-13T10:52:09;100131.59;;;23.56;75.26
74218;BME280;62579;47.288;18.646;2023-10-13T10:54:39;100126.34;;;23.70;74.30
74218;BME280;62579;47.288;18.646;2023-10-13T10:57:09;100114.22;;;23.75;72.90
74218;BME280;62579;47.288;18.646;2023-10-13T10:59:38;100113.53;;;23.84;72.93
74218;BME280;62579;47.288;18.646;2023-10-13T11:02:04;100118.66;;;23.97;71.07
74218;BME280;62579;47.288;18.646;2023-10-13T11:04:31;100113.12;;;24.07;70.82
74218;BME280;62579;47.288;18.646;2023-10-13T11:07:05;100119.16;;;24.13;69.34
74218;BME280;62579;47.288;18.646;2023-10-13T11:09:33;100115.50;;;24.29;68.07
74218;BME280;62579;47.288;18.646;2023-10-13T11:12:09;100115.63;;;24.31;67.49
74218;BME280;62579;47.288;18.646;2023-10-13T11:14:40;100118.44;;;24.41;68.07
74218;BME280;62579;47.288;18.646;2023-10-13T11:17:06;100114.91;;;24.40;66.60
74218;BME280;62579;47.288;18.646;2023-10-13T11:19:44;100105.53;;;24.45;67.57
74218;BME280;62579;47.288;18.646;2023-10-13T11:22:11;100114.19;;;24.49;66.00
74218;BME280;62579;47.288;18.646;2023-10-13T11:24:43;100106.25;;;24.65;65.08
74218;BME280;62579;47.288;18.646;2023-10-13T11:27:15;100099.78;;;24.72;65.29
74218;BME280;62579;47.288;18.646;2023-10-13T11:29:46;100097.91;;;24.84;63.65
74218;BME280;62579;47.288;18.646;2023-10-13T11:32:17;100098.16;;;24.88;62.04
74218;BME280;62579;47.288;18.646;2023-10-13T11:34:45;100096.38;;;25.02;62.23
74218;BME280;62579;47.288;18.646;2023-10-13T11:37:17;100094.16;;;25.11;60.41
74218;BME280;62579;47.288;18.646;2023-10-13T11:40:03;100095.75;;;25.14;59.89
74218;BME280;62579;47.288;18.646;2023-10-13T11:42:35;100087.75;;;25.29;58.03
74218;BME280;62579;47.288;18.646;2023-10-13T11:45:01;100079.34;;;25.39;58.09
74218;BME280;62579;47.288;18.646;2023-10-13T11:47:47;100082.84;;;25.49;57.80
74218;BME280;62579;47.288;18.646;2023-10-13T11:50:25;100083.84;;;25.53;57.21
74218;BME280;62579;47.288;18.646;2023-10-13T11:53:00;100086.31;;;25.59;56.02
74218;BME280;62579;47.288;18.646;2023-10-13T11:55:25;100089.22;;;25.61;52.25
74218;BME280;62579;47.288;18.646;2023-10-13T11:57:51;100087.63;;;25.58;52.06
74218;BME280;62579;47.288;18.646;2023-10-13T12:00:17;100080.63;;;25.57;52.98
74218;BME280;62579;47.288;18.646;2023-10-13T12:03:11;100079.28;;;25.58;53.10
74218;BME280;62579;47.288;18.646;2023-10-13T12:05:55;100077.94;;;25.59;54.30
74218;BME280;62579;47.288;18.646;2023-10-13T12:08:39;100067.75;;;25.52;54.60
74218;BME280;62579;47.288;18.646;2023-10-13T12:11:17;100063.34;;;25.49;55.50
74218;BME280;62579;47.288;18.646;2023-10-13T12:14:03;100066.41;;;25.53;55.25
74218;BME280;62579;47.288;18.646;2023-10-13T12:16:50;100067.75;;;25.73;53.71
74218;BME280;62579;47.288;18.646;2023-10-13T12:19:17;100065.88;;;25.87;51.69
74218;BME280;62579;47.288;18.646;2023-10-13T12:21:48;100068.31;;;25.93;52.20
74218;BME280;62579;47.288;18.646;2023-10-13T12:24:14;100071.37;;;25.97;51.88
74218;BME280;62579;47.288;18.646;2023-10-13T12:26:57;100068.16;;;26.00;53.58
74218;BME280;62579;47.288;18.646;2023-10-13T12:29:23;100062.59;;;26.12;53.68
74218;BME280;62579;47.288;18.646;2023-10-13T12:31:53;100060.87;;;26.28;52.60
74218;BME280;62579;47.288;18.646;2023-10-13T12:34:36;100058.00;;;26.38;50.12
74218;BME280;62579;47.288;18.646;2023-10-13T12:37:32;100052.44;;;26.49;49.93
74218;BME280;62579;47.288;18.646;2023-10-13T12:40:08;100054.28;;;26.56;49.18
74218;BME280;62579;47.288;18.646;2023-10-13T12:42:52;100040.84;;;26.64;47.51
74218;BME280;62579;47.288;18.646;2023-10-13T12:45:40;100047.00;;;26.63;46.25
74218;BME280;62579;47.288;18.646;2023-10-13T12:48:24;100045.91;;;26.68;46.35
74218;BME280;62579;47.288;18.646;2023-10-13T12:51:08;100041.72;;;26.90;46.98
74218;BME280;62579;47.288;18.646;2023-10-13T12:53:51;100033.97;;;27.00;44.38
74218;BME280;62579;47.288;18.646;2023-10-13T12:56:18;100031.66;;;27.08;45.01
74218;BME280;62579;47.288;18.646;2023-10-13T12:58:53;100029.00;;;27.10;43.21
74218;BME280;62579;47.288;18.646;2023-10-13T13:03:49;100023.16;;;27.06;43.30
74218;BME280;62579;47.288;18.646;2023-10-13T13:06:25;100023.16;;;27.06;43.30
74218;BME280;62579;47.288;18.646;2023-10-13T13:08:57;100025.47;;;27.10;44.46
74218;BME280;62579;47.288;18.646;2023-10-13T13:11:24;100018.78;;;27.15;45.40
74218;BME280;62579;47.288;18.646;2023-10-13T13:13:49;100018.31;;;27.07;44.11
74218;BME280;62579;47.288;18.646;2023-10-13T13:16:16;100012.09;;;27.08;44.01
74218;BME280;62579;47.288;18.646;2023-10-13T13:18:49;100015.12;;;27.01;45.54
74218;BME280;62579;47.288;18.646;2023-10-13T13:21:14;100018.66;;;27.13;44.44
74218;BME280;62579;47.288;18.646;2023-10-13T13:23:48;100018.78;;;27.03;44.35
74218;BME280;62579;47.288;18.646;2023-10-13T13:26:14;100016.72;;;27.15;43.87